createdAt,value
2023-02-12T00:00:30.983Z,38.20
2023-02-12T00:03:35.070Z,39.70
2023-02-12T00:06:39.337Z,43.90
2023-02-12T00:09:42.404Z,49.63
2023-02-12T00:12:45.305Z,50.33
2023-02-12T00:15:48.271Z,43.87
2023-02-12T00:18:54.862Z,43.27
2023-02-12T00:21:57.629Z,40.47
2023-02-12T00:25:00.330Z,38.60
2023-02-12T00:28:03.806Z,40.33
2023-02-12T00:31:08.585Z,40.40
2023-02-12T00:34:12.709Z,35.63
2023-02-12T00:37:16.056Z,38.73
2023-02-12T00:40:19.065Z,34.40
2023-02-12T00:43:21.904Z,33.13
2023-02-12T00:46:24.953Z,37.17
2023-02-12T00:49:29.362Z,32.57
2023-02-12T00:52:32.133Z,35.93
2023-02-12T00:55:35.223Z,34.97
2023-02-12T00:58:37.936Z,34.73
2023-02-12T01:01:41.253Z,32.10
2023-02-12T01:04:46.095Z,37.97
2023-02-12T01:07:50.733Z,34.13
2023-02-12T01:10:59.221Z,32.20
2023-02-12T01:14:02.295Z,35.23
2023-02-12T01:17:05.028Z,38.20
2023-02-12T01:20:12.454Z,40.20
2023-02-12T01:23:15.165Z,41.20
2023-02-12T01:26:19.826Z,38.80
2023-02-12T01:29:22.558Z,38.23
2023-02-12T01:32:25.366Z,40.70
2023-02-12T01:35:29.427Z,38.60
2023-02-12T01:38:32.406Z,37.20
2023-02-12T01:41:37.582Z,35.77
2023-02-12T01:44:44.963Z,37.07
2023-02-12T01:47:47.830Z,39.97
2023-02-12T01:50:54.184Z,33.27
2023-02-12T01:54:00.215Z,39.47
2023-02-12T01:57:06.025Z,36.07
2023-02-12T02:00:12.421Z,35.83
2023-02-12T02:03:15.472Z,36.30
2023-02-12T02:06:23.678Z,36.73
2023-02-12T02:09:27.132Z,36.23
2023-02-12T02:12:49.507Z,39.90
2023-02-12T02:15:58.447Z,37.80
2023-02-12T02:19:09.106Z,36.70
2023-02-12T02:22:22.762Z,38.77
2023-02-12T02:25:58.107Z,37.83
2023-02-12T02:29:15.450Z,34.07
2023-02-12T02:32:25.710Z,31.33
2023-02-12T02:35:33.454Z,29.70
2023-02-12T02:38:43.357Z,28.53
2023-02-12T02:41:51.095Z,41.33
2023-02-12T02:44:55.854Z,34.30
2023-02-12T02:48:05.805Z,33.63
2023-02-12T02:51:13.071Z,32.93
2023-02-12T02:54:21.429Z,30.87
2023-02-12T02:57:29.283Z,31.27
2023-02-12T03:00:38.773Z,27.83
2023-02-12T03:03:50.248Z,25.93
2023-02-12T03:06:57.445Z,29.87
2023-02-12T03:10:03.364Z,33.60
2023-02-12T03:13:10.282Z,31.40
2023-02-12T03:16:17.982Z,30.80
2023-02-12T03:19:26.026Z,28.63
2023-02-12T03:22:32.607Z,33.80
2023-02-12T03:25:39.314Z,28.63
2023-02-12T03:28:42.244Z,28.40
2023-02-12T03:31:56.797Z,27.80
2023-02-12T03:35:13.531Z,26.43
2023-02-12T03:38:22.970Z,24.67
2023-02-12T03:41:32.140Z,25.97
2023-02-12T03:44:48.869Z,27.13
2023-02-12T03:48:02.333Z,25.77
2023-02-12T03:51:16.022Z,24.40
2023-02-12T03:54:21.380Z,25.73
2023-02-12T03:57:30.658Z,26.63
2023-02-12T04:00:33.551Z,27.13
2023-02-12T04:03:36.419Z,28.03
2023-02-12T04:06:41.296Z,27.47
2023-02-12T04:09:44.537Z,24.90
2023-02-12T04:12:55.818Z,24.10
2023-02-12T04:16:08.967Z,26.10
2023-02-12T04:19:15.680Z,26.17
2023-02-12T04:22:36.147Z,24.53
2023-02-12T04:25:51.774Z,26.23
2023-02-12T04:29:09.215Z,25.77
2023-02-12T04:32:17.460Z,25.63
2023-02-12T04:35:25.306Z,29.30
2023-02-12T04:38:34.011Z,29.73
2023-02-12T04:41:36.853Z,30.20
2023-02-12T04:44:41.161Z,34.67
2023-02-12T04:47:43.956Z,30.53
2023-02-12T04:50:46.716Z,29.23
2023-02-12T04:53:51.061Z,26.17
2023-02-12T04:56:53.828Z,32.07
2023-02-12T04:59:56.568Z,22.00
2023-02-12T05:02:59.571Z,23.77
2023-02-12T05:06:04.458Z,25.77
2023-02-12T05:09:09.781Z,26.30
2023-02-12T05:12:12.501Z,25.73
2023-02-12T05:15:15.396Z,23.10
2023-02-12T05:18:18.085Z,24.87
2023-02-12T05:21:20.759Z,21.23
2023-02-12T05:24:24.921Z,22.97
2023-02-12T05:27:27.587Z,25.90
2023-02-12T05:30:30.388Z,19.37
2023-02-12T05:33:33.566Z,23.90
2023-02-12T05:36:36.418Z,22.27
2023-02-12T05:39:40.746Z,20.70
2023-02-12T05:42:43.453Z,24.30
2023-02-12T05:45:46.111Z,19.53
2023-02-12T05:48:49.060Z,19.67
2023-02-12T05:51:51.869Z,24.77
2023-02-12T05:54:55.917Z,23.27
2023-02-12T05:57:58.608Z,22.33
2023-02-12T06:01:01.293Z,20.70
2023-02-12T06:04:05.743Z,22.70
2023-02-12T06:07:08.450Z,22.33
2023-02-12T06:10:12.891Z,24.67
2023-02-12T06:13:15.554Z,24.47
2023-02-12T06:16:21.020Z,25.73
2023-02-12T06:19:24.417Z,24.80
2023-02-12T06:22:28.482Z,23.40
2023-02-12T06:25:32.619Z,28.23
2023-02-12T06:28:35.734Z,31.73
2023-02-12T06:31:39.253Z,37.20
2023-02-12T06:34:42.304Z,35.77
2023-02-12T06:37:45.141Z,37.27
2023-02-12T06:40:52.020Z,50.10
2023-02-12T06:43:54.798Z,37.53
2023-02-12T06:46:58.773Z,29.77
2023-02-12T06:50:01.729Z,30.40
2023-02-12T06:53:04.499Z,28.80
2023-02-12T06:56:11.457Z,29.07
2023-02-12T06:59:16.227Z,23.07
2023-02-12T07:02:18.957Z,27.20
2023-02-12T07:05:21.833Z,22.50
2023-02-12T07:08:24.630Z,24.17
2023-02-12T07:11:31.126Z,19.63
2023-02-12T07:14:33.887Z,23.03
2023-02-12T07:17:36.715Z,21.90
2023-02-12T07:20:39.546Z,21.27
2023-02-12T07:23:42.654Z,22.73
2023-02-12T07:26:46.793Z,25.00
2023-02-12T07:29:49.518Z,24.57
2023-02-12T07:32:52.165Z,28.40
2023-02-12T07:35:55.110Z,26.93
2023-02-12T07:38:59.285Z,27.20
2023-02-12T07:42:03.565Z,29.30
2023-02-12T07:45:07.741Z,24.30
2023-02-12T07:48:10.603Z,23.20
2023-02-12T07:51:16.048Z,23.43
2023-02-12T07:54:18.890Z,19.70
2023-02-12T07:57:22.952Z,23.43
2023-02-12T08:00:25.822Z,23.03
2023-02-12T08:03:29.647Z,29.53
2023-02-12T08:06:34.241Z,22.00
2023-02-12T08:09:37.012Z,19.47
2023-02-12T08:12:41.024Z,23.53
2023-02-12T08:15:43.694Z,22.43
2023-02-12T08:18:46.921Z,21.57
2023-02-12T08:21:50.782Z,35.20
2023-02-12T08:24:53.515Z,32.67
2023-02-12T08:27:57.676Z,35.13
2023-02-12T08:31:02.214Z,31.93
2023-02-12T08:34:05.955Z,28.50
2023-02-12T08:37:08.694Z,32.50
2023-02-12T08:40:13.854Z,38.97
2023-02-12T08:43:17.925Z,34.70
2023-02-12T08:46:23.423Z,31.20
2023-02-12T08:49:28.673Z,26.17
2023-02-12T08:52:31.347Z,27.93
2023-02-12T08:55:34.150Z,27.80
2023-02-12T08:58:38.996Z,26.27
2023-02-12T09:01:42.833Z,28.50
2023-02-12T09:04:45.738Z,25.03
2023-02-12T09:07:49.277Z,30.63
2023-02-12T09:10:51.997Z,35.57
2023-02-12T09:13:56.064Z,31.43
2023-02-12T09:16:58.747Z,29.30
2023-02-12T09:20:02.678Z,25.23
2023-02-12T09:23:05.859Z,26.00
2023-02-12T09:26:10.780Z,30.73
2023-02-12T09:29:14.930Z,26.83
2023-02-12T09:32:17.663Z,26.37
2023-02-12T09:35:20.582Z,25.97
2023-02-12T09:38:23.311Z,28.83
2023-02-12T09:41:45.382Z,33.10
2023-02-12T09:44:57.644Z,29.23
2023-02-12T09:48:13.645Z,31.33
2023-02-12T09:51:16.551Z,32.43
2023-02-12T09:54:22.103Z,33.23
2023-02-12T09:57:29.458Z,32.23
2023-02-12T10:00:33.782Z,35.37
2023-02-12T10:03:36.595Z,34.40
2023-02-12T10:06:50.678Z,33.03
2023-02-12T10:10:09.867Z,32.70
2023-02-12T10:13:25.132Z,34.50
2023-02-12T10:16:43.916Z,37.20
2023-02-12T10:20:19.641Z,37.07
2023-02-12T10:24:00.827Z,35.37
2023-02-12T10:27:11.864Z,22.07
2023-02-12T10:30:22.374Z,28.27
2023-02-12T10:33:32.867Z,40.07
2023-02-12T10:36:43.176Z,37.43
2023-02-12T10:39:51.605Z,42.83
2023-02-12T10:42:54.711Z,43.63
2023-02-12T10:45:58.178Z,39.87
2023-02-12T10:49:03.462Z,38.23
2023-02-12T10:52:14.980Z,38.13
2023-02-12T10:55:36.820Z,39.13
2023-02-12T10:58:41.865Z,43.33
2023-02-12T11:01:48.527Z,36.37
2023-02-12T11:04:54.301Z,38.03
2023-02-12T11:07:57.576Z,36.47
2023-02-12T11:11:11.151Z,32.73
2023-02-12T11:14:20.553Z,53.20
2023-02-12T11:17:29.758Z,33.33
2023-02-12T11:20:41.120Z,30.47
2023-02-12T11:23:45.299Z,41.07
2023-02-12T11:26:48.034Z,36.97
2023-02-12T11:30:14.186Z,40.67
2023-02-12T11:33:22.822Z,41.07
2023-02-12T11:36:29.772Z,38.20
2023-02-12T11:39:39.490Z,35.83
2023-02-12T11:42:43.469Z,34.50
2023-02-12T11:45:49.748Z,33.60
2023-02-12T11:48:54.341Z,30.53
2023-02-12T11:52:01.236Z,31.73
2023-02-12T11:55:07.859Z,26.03
2023-02-12T11:58:17.778Z,20.70
2023-02-12T12:01:23.619Z,26.90
2023-02-12T12:04:31.734Z,17.30
2023-02-12T12:07:40.080Z,16.90
2023-02-12T12:10:48.302Z,20.50
2023-02-12T12:13:58.669Z,18.40
2023-02-12T12:17:24.287Z,15.37
2023-02-12T12:20:32.042Z,23.17
2023-02-12T12:23:41.291Z,21.73
2023-02-12T12:26:50.231Z,23.53
2023-02-12T12:30:06.693Z,47.23
2023-02-12T12:33:18.360Z,48.27
2023-02-12T12:36:51.861Z,18.43
2023-02-12T12:40:09.111Z,16.23
2023-02-12T12:43:19.695Z,17.27
2023-02-12T12:46:47.851Z,19.20
2023-02-12T12:50:18.830Z,22.37
2023-02-12T12:53:35.947Z,16.63
2023-02-12T12:56:59.429Z,15.50
2023-02-12T13:00:21.126Z,14.70
2023-02-12T13:03:40.784Z,31.03
2023-02-12T13:06:54.416Z,32.27
2023-02-12T13:10:20.705Z,14.90
2023-02-12T13:13:34.008Z,15.60
2023-02-12T13:16:41.630Z,17.67
2023-02-12T13:19:54.369Z,17.13
2023-02-12T13:23:02.186Z,19.60
2023-02-12T13:26:12.664Z,24.17
2023-02-12T13:29:21.880Z,21.70
2023-02-12T13:32:29.609Z,17.40
2023-02-12T13:35:35.162Z,35.17
2023-02-12T13:38:41.465Z,16.87
2023-02-12T13:41:57.462Z,15.87
2023-02-12T13:45:18.239Z,16.57
2023-02-12T13:48:36.876Z,14.50
2023-02-12T13:51:44.985Z,15.90
2023-02-12T13:54:58.083Z,15.33
2023-02-12T13:58:40.799Z,21.53
2023-02-12T14:01:49.324Z,17.47
2023-02-12T14:04:57.193Z,19.77
2023-02-12T14:08:05.563Z,18.90
2023-02-12T14:11:10.524Z,26.80
2023-02-12T14:14:13.700Z,12.40
2023-02-12T14:17:44.262Z,15.50
2023-02-12T14:20:46.978Z,18.70
2023-02-12T14:23:50.762Z,17.80
2023-02-12T14:26:54.127Z,22.23
2023-02-12T14:30:26.992Z,13.20
2023-02-12T14:33:31.122Z,19.17
2023-02-12T14:36:40.790Z,12.53
2023-02-12T14:39:43.661Z,16.50
2023-02-12T14:42:56.863Z,14.97
2023-02-12T14:46:20.973Z,13.77
2023-02-12T14:49:28.205Z,17.30
2023-02-12T14:52:33.492Z,16.57
2023-02-12T14:55:36.689Z,18.63
2023-02-12T14:58:40.894Z,17.43
2023-02-12T15:01:44.434Z,16.40
2023-02-12T15:04:49.663Z,15.57
2023-02-12T15:07:56.165Z,16.07
2023-02-12T15:11:07.766Z,16.47
2023-02-12T15:14:17.686Z,21.27
2023-02-12T15:17:23.254Z,19.60
2023-02-12T15:20:35.715Z,14.27
2023-02-12T15:23:41.394Z,15.33
2023-02-12T15:26:48.253Z,16.97
2023-02-12T15:29:53.593Z,16.30
2023-02-12T15:32:57.754Z,15.57
2023-02-12T15:36:02.878Z,14.13
2023-02-12T15:39:09.713Z,16.20
2023-02-12T15:42:26.818Z,13.73
2023-02-12T15:45:30.990Z,12.80
2023-02-12T15:48:35.947Z,13.67
2023-02-12T15:51:42.237Z,14.47
2023-02-12T15:54:46.112Z,16.47
2023-02-12T15:57:51.457Z,15.10
2023-02-12T16:00:56.980Z,13.43
2023-02-12T16:04:03.320Z,16.40
2023-02-12T16:07:09.122Z,18.23
2023-02-12T16:10:15.716Z,18.97
2023-02-12T16:13:21.922Z,26.03
2023-02-12T16:16:28.086Z,16.20
2023-02-12T16:19:33.031Z,20.30
2023-02-12T16:22:39.656Z,21.70
2023-02-12T16:25:42.505Z,21.20
2023-02-12T16:28:48.374Z,25.27
2023-02-12T16:31:56.182Z,22.50
2023-02-12T16:35:02.310Z,23.53
2023-02-12T16:38:47.454Z,15.20
2023-02-12T16:41:56.358Z,36.20
2023-02-12T16:44:59.130Z,21.43
2023-02-12T16:48:04.938Z,17.77
2023-02-12T16:51:07.941Z,21.40
2023-02-12T16:54:31.238Z,18.57
2023-02-12T16:57:34.256Z,14.50
2023-02-12T17:00:37.059Z,17.90
2023-02-12T17:03:40.972Z,16.37
2023-02-12T17:06:44.092Z,18.57
2023-02-12T17:09:48.181Z,15.80
2023-02-12T17:12:53.162Z,28.13
2023-02-12T17:15:58.408Z,15.53
2023-02-12T17:19:02.212Z,15.43
2023-02-12T17:22:06.146Z,24.10
2023-02-12T17:25:11.504Z,23.40
2023-02-12T17:28:14.360Z,25.07
2023-02-12T17:31:17.241Z,20.50
2023-02-12T17:34:20.976Z,17.93
2023-02-12T17:37:25.400Z,16.77
2023-02-12T17:40:29.547Z,20.53
2023-02-12T17:43:32.319Z,21.80
2023-02-12T17:46:35.095Z,19.83
2023-02-12T17:49:39.851Z,14.93
2023-02-12T17:52:42.864Z,19.60
2023-02-12T17:55:48.106Z,17.80
2023-02-12T17:58:50.958Z,18.10
2023-02-12T18:01:54.144Z,16.27
2023-02-12T18:04:56.952Z,16.27
2023-02-12T18:07:59.783Z,17.10
2023-02-12T18:11:07.764Z,20.13
2023-02-12T18:14:12.444Z,16.47
2023-02-12T18:17:15.105Z,14.10
2023-02-12T18:20:17.981Z,13.93
2023-02-12T18:23:20.661Z,16.53
2023-02-12T18:26:24.721Z,29.47
2023-02-12T18:29:27.511Z,16.83
2023-02-12T18:32:30.221Z,18.23
2023-02-12T18:35:33.259Z,15.77
2023-02-12T18:38:37.137Z,17.93
2023-02-12T18:41:41.349Z,17.47
2023-02-12T18:44:44.081Z,16.63
2023-02-12T18:47:47.069Z,15.53
2023-02-12T18:50:51.752Z,14.67
2023-02-12T18:53:56.030Z,15.20
2023-02-12T18:57:00.342Z,17.27
2023-02-12T19:00:04.937Z,17.00
2023-02-12T19:03:07.826Z,17.73
2023-02-12T19:06:10.936Z,16.87
2023-02-12T19:09:16.584Z,17.63
2023-02-12T19:12:20.720Z,27.10
2023-02-12T19:15:23.488Z,16.30
2023-02-12T19:18:26.330Z,17.97
2023-02-12T19:21:29.166Z,18.70
2023-02-12T19:24:45.569Z,21.37
2023-02-12T19:27:50.170Z,24.23
2023-02-12T19:30:52.992Z,23.57
2023-02-12T19:33:59.183Z,21.13
2023-02-12T19:37:02.140Z,20.17
2023-02-12T19:40:05.126Z,16.77
2023-02-12T19:43:09.197Z,30.27
2023-02-12T19:46:13.555Z,27.40
2023-02-12T19:49:19.784Z,17.23
2023-02-12T19:52:22.461Z,16.20
2023-02-12T19:55:25.174Z,17.63
2023-02-12T19:58:31.176Z,19.17
2023-02-12T20:01:35.217Z,20.90
2023-02-12T20:04:37.931Z,22.17
2023-02-12T20:07:40.643Z,19.13
2023-02-12T20:10:43.365Z,21.63
2023-02-12T20:13:47.812Z,17.47
2023-02-12T20:16:51.879Z,23.27
2023-02-12T20:19:54.640Z,17.87
2023-02-12T20:22:57.487Z,29.90
2023-02-12T20:26:00.349Z,16.17
2023-02-12T20:29:05.759Z,18.53
2023-02-12T20:32:08.783Z,16.93
2023-02-12T20:35:11.869Z,16.37
2023-02-12T20:38:15.358Z,16.53
2023-02-12T20:41:18.113Z,18.43
2023-02-12T20:44:23.248Z,17.17
2023-02-12T20:47:28.805Z,17.33
2023-02-12T20:50:32.045Z,14.97
2023-02-12T20:53:35.049Z,16.93
2023-02-12T20:56:38.698Z,15.40
2023-02-12T20:59:42.884Z,14.20
2023-02-12T21:02:45.915Z,13.93
2023-02-12T21:05:48.691Z,15.43
2023-02-12T21:08:52.973Z,17.07
2023-02-12T21:11:58.178Z,16.37
2023-02-12T21:15:03.874Z,16.10
2023-02-12T21:18:06.692Z,15.27
2023-02-12T21:21:16.380Z,16.03
2023-02-12T21:24:21.622Z,16.87
2023-02-12T21:27:24.473Z,16.80
2023-02-12T21:30:29.266Z,19.40
2023-02-12T21:33:32.077Z,15.90
2023-02-12T21:36:37.392Z,16.57
2023-02-12T21:39:40.093Z,19.47
2023-02-12T21:42:42.782Z,18.20
2023-02-12T21:45:52.712Z,18.70
2023-02-12T21:48:55.924Z,18.80
2023-02-12T21:52:02.528Z,16.37
2023-02-12T21:55:05.513Z,18.23
2023-02-12T21:58:08.221Z,21.57
2023-02-12T22:01:13.972Z,20.00
2023-02-12T22:04:18.289Z,18.63
2023-02-12T22:07:21.020Z,20.13
2023-02-12T22:10:23.674Z,21.77
2023-02-12T22:13:26.343Z,20.53
2023-02-12T22:16:30.456Z,22.20
2023-02-12T22:19:33.297Z,28.23
2023-02-12T22:22:36.200Z,24.80
2023-02-12T22:25:39.304Z,23.07
2023-02-12T22:28:43.326Z,25.27
2023-02-12T22:31:48.340Z,23.27
2023-02-12T22:34:51.128Z,22.73
2023-02-12T22:37:53.801Z,24.60
2023-02-12T22:40:56.762Z,23.83
2023-02-12T22:44:00.118Z,23.07
2023-02-12T22:47:05.282Z,24.17
2023-02-12T22:50:08.799Z,24.97
2023-02-12T22:53:11.477Z,22.77
2023-02-12T22:56:14.348Z,24.87
2023-02-12T22:59:17.286Z,29.80
2023-02-12T23:02:21.604Z,26.90
2023-02-12T23:05:24.296Z,35.90
2023-02-12T23:08:27.047Z,35.17
2023-02-12T23:11:31.669Z,36.17
2023-02-12T23:14:36.093Z,35.37
2023-02-12T23:17:40.163Z,31.50
2023-02-12T23:20:42.825Z,32.70
2023-02-12T23:23:45.516Z,37.40
2023-02-12T23:26:48.169Z,35.33
2023-02-12T23:29:50.833Z,35.27
2023-02-12T23:32:55.139Z,35.90
2023-02-12T23:35:57.835Z,32.17
2023-02-12T23:39:00.505Z,35.43
2023-02-12T23:42:03.762Z,33.70
2023-02-12T23:45:06.829Z,37.20
2023-02-12T23:48:11.076Z,33.50
2023-02-12T23:51:13.832Z,39.10
2023-02-12T23:54:16.597Z,34.27
2023-02-12T23:57:19.277Z,35.03
